Latest Coastal Weather Observations for Friendly Beaches

IDT60701

Issued at 4:52 am EST Thursday 3 September 2026 (issued every 10 minutes, with the page automatically refreshed every 10 minutes)

About coastal observations | Map of coastal stations | Coastal observations for TAS | Marine services | Other Formats
Station Details ID: 092114 Name: FRIENDLY BEACHES Lat: -42.00 Lon: 148.28 Height: 55.0 m
Data from the previous 72 hours. | See also: Recent months at Friendly Beaches
Date/Time
EST
Wind Sea
Height
m
Swell Vis
km
Cloud Weather Temp
°C
Press
MSL
hPa
Rain since
9am
mm
Dir  Spd
kts
Gust
kts
Height
m
Period
s
Dir
03/04:30am NNW 8 15 - - - - - - - 13.5 996.0 0.0
03/04:00am NW 8 17 - - - - - - - 13.5 996.6 0.0
03/03:30am NNW 5 11 - - - - - - - 13.7 997.2 0.0
03/03:00am NNW 6 15 - - - - - - - 13.6 997.7 0.0
03/02:30am N 4 7 - - - - - - - 12.8 998.5 0.0
03/02:00am NNW 3 7 - - - - - - - 13.2 999.1 0.0
03/01:30am WNW 4 10 - - - - - - - 13.0 999.9 0.0
03/01:00am WNW 9 14 - - - - - - - 12.9 1000.4 0.0
03/12:30am NW 11 18 - - - - - - - 13.1 1000.6 0.0
03/12:00am WNW 11 20 - - - - - - - 13.0 1000.7 0.0
 
Date/Time
EST
Wind Sea
Height
m
Swell Vis
km
Cloud Weather Temp
°C
Press
MSL
hPa
Rain since
9am
mm
Dir  Spd
kts
Gust
kts
Height
m
Period
s
Dir
02/11:30pm WNW 10 16 - - - - - - - 12.8 1001.3 0.0
02/11:14pm WNW 13 23 - - - - - - - 12.8 1001.5 0.0
02/11:00pm WNW 15 25 - - - - - - - 12.9 1001.8 0.0
02/10:46pm WNW 15 26 - - - - - - - 12.9 1001.8 0.0
02/10:30pm WNW 9 17 - - - - - - - 12.5 1002.1 0.0
02/10:00pm WNW 12 24 - - - - - - - 12.6 1002.5 0.0
02/09:45pm WNW 12 25 - - - - - - - 12.5 1002.7 0.0
02/09:30pm WNW 16 28 - - - - - - - 12.6 1002.7 0.0
02/09:00pm WNW 17 31 - - - - - - - 12.8 1002.6 0.0
02/08:36pm WNW 16 27 - - - - - - - 12.8 1002.6 0.0
02/08:30pm WNW 16 24 - - - - - - - 12.8 1002.5 0.0
02/08:00pm WNW 17 27 - - - - - - - 13.0 1002.8 0.0
02/07:43pm WNW 15 28 - - - - - - - 12.9 1003.2 0.0
02/07:41pm WNW 14 28 - - - - - - - 12.9 1003.2 0.0
02/07:30pm WNW 15 28 - - - - - - - 12.9 1003.1 0.0
02/07:00pm WNW 17 29 - - - - - - - 13.0 1002.9 0.0
02/06:30pm WNW 15 25 - - - - - - - 13.0 1003.1 0.0
02/06:28pm WNW 16 25 - - - - - - - 13.0 1003.2 0.0
02/06:00pm WNW 15 26 - - - - - - - 13.1 1003.3 0.0
02/05:30pm WNW 14 26 - - - - - - - 13.5 1002.9 0.0
02/05:06pm WNW 15 27 - - - - - - - 13.9 1002.9 0.0
02/05:00pm WNW 13 25 - - - - - - - 14.1 1003.0 0.0
02/04:38pm WNW 13 25 - - - - - - - 14.7 1003.1 0.0
02/04:30pm WNW 14 26 - - - - - - - 14.9 1003.1 0.0
02/04:22pm WNW 15 26 - - - - - - - 15.1 1003.1 0.0
02/04:00pm WNW 13 24 - - - - - - - 15.4 1003.2 0.0
02/03:30pm WNW 10 17 - - - - - - - 16.1 1003.5 0.0
02/03:00pm WNW 10 21 - - - - - - - 16.4 1003.8 0.0
02/02:30pm WNW 12 20 - - - - - - - 16.3 1003.8 0.0
02/02:00pm WNW 13 23 - - - - - - - 16.6 1003.9 0.0
02/01:30pm NW 13 20 - - - - - - - 16.6 1004.3 0.0
02/01:00pm NW 13 21 - - - - - - - 16.5 1004.7 0.0
02/12:30pm NW 11 18 - - - - - - - 16.7 1005.2 0.0
02/12:00pm NW 11 18 - - - - - - - 16.4 1005.6 0.0
02/11:30am NW 10 16 - - - - - - - 16.0 1005.8 0.0
02/11:00am NW 10 18 - - - - - - - 15.6 1006.1 0.0
02/10:30am NW 8 16 - - - - - - - 15.4 1006.5 0.0
02/10:00am WNW 9 15 - - - - - - - 14.2 1006.9 0.0
02/09:30am NW 8 16 - - - - - - - 13.7 1007.1 0.0
02/09:00am NW 6 13 - - - - - - - 12.6 1007.2 0.0
02/08:30am NW 3 6 - - - - - - - 11.7 1007.2 0.0
02/08:00am WNW 4 8 - - - - - - - 10.7 1006.9 0.0
02/07:30am NW 3 5 - - - - - - - 9.6 1006.7 0.0
02/07:00am NW 4 6 - - - - - - - 8.8 1006.6 0.0
02/06:30am WNW 4 6 - - - - - - - 8.6 1006.2 0.0
02/06:00am W 7 11 - - - - - - - 9.9 1005.8 0.0
02/05:30am W 6 8 - - - - - - - 9.7 1005.4 0.0
02/05:00am W 3 5 - - - - - - - 10.3 1005.2 0.0
02/04:30am WSW 3 5 - - - - - - - 11.2 1004.8 0.0
02/04:00am SW 1 3 - - - - - - - 11.4 1004.2 0.0
02/03:30am SW 4 5 - - - - - - - 11.5 1003.9 0.0
02/03:00am SSE 3 4 - - - - - - - 11.9 1003.8 0.0
02/02:30am WNW 5 8 - - - - - - - 13.4 1003.5 0.0
02/02:00am WNW 3 6 - - - - - - - 14.0 1003.7 0.0
02/01:30am WNW 4 6 - - - - - - - 14.5 1003.8 0.0
02/01:00am WNW 5 9 - - - - - - - 14.6 1003.4 0.0
02/12:30am WNW 6 11 - - - - - - - 15.0 1003.4 0.0
02/12:00am WNW 10 24 - - - - - - - 15.5 1003.1 0.0
 
Date/Time
EST
Wind Sea
Height
m
Swell Vis
km
Cloud Weather Temp
°C
Press
MSL
hPa
Rain since
9am
mm
Dir  Spd
kts
Gust
kts
Height
m
Period
s
Dir
01/11:30pm WNW 10 19 - - - - - - - 15.3 1003.5 0.0
01/11:00pm WNW 13 28 - - - - - - - 15.7 1003.1 0.0
01/10:30pm WNW 9 19 - - - - - - - 15.9 1004.3 0.0
01/10:00pm NW 13 31 - - - - - - - 15.9 1002.8 0.0
01/09:32pm WNW 15 32 - - - - - - - 16.2 1003.0 0.0
01/09:30pm WNW 14 32 - - - - - - - 16.2 1002.9 0.0
01/09:00pm WNW 8 17 - - - - - - - 16.0 1002.8 0.0
01/08:30pm WNW 13 23 - - - - - - - 16.2 1002.5 0.0
01/08:00pm WNW 12 27 - - - - - - - 16.4 1003.0 0.0
01/07:30pm WNW 13 21 - - - - - - - 16.7 1003.1 0.0
01/07:13pm WNW 12 25 - - - - - - - 16.8 1002.9 0.0
01/07:00pm WNW 15 30 - - - - - - - 16.8 1003.2 0.0
01/06:36pm WNW 15 26 - - - - - - - 17.4 1003.6 0.0
01/06:30pm WNW 12 24 - - - - - - - 17.4 1003.6 0.0
01/06:00pm NW 11 21 - - - - - - - 17.1 1003.6 0.0
01/05:30pm NW 12 26 - - - - - - - 17.2 1003.7 0.0
01/05:00pm WNW 10 25 - - - - - - - 17.6 1003.9 0.0
01/04:30pm NW 12 21 - - - - - - - 18.0 1003.8 0.0
01/04:00pm NW 9 18 - - - - - - - 18.1 1004.4 0.0
01/03:30pm NW 7 13 - - - - - - - 18.1 1005.2 0.0
01/03:00pm NW 6 11 - - - - - - - 18.4 1005.9 0.0
01/02:30pm NW 6 13 - - - - - - - 18.1 1006.8 0.0
01/02:00pm WNW 7 14 - - - - - - - 17.8 1007.5 0.0
01/01:30pm NW 12 19 - - - - - - - 18.2 1007.8 0.0
01/01:00pm NW 11 25 - - - - - - - 17.8 1008.4 0.0
01/12:30pm NW 11 22 - - - - - - - 17.7 1009.1 0.0
01/12:00pm NW 9 18 - - - - - - - 17.8 1010.0 0.0
01/11:31am NNW 10 18 - - - - - - - 17.7 1010.7 0.0
01/11:30am NNW 10 19 - - - - - - - 17.7 1010.7 0.0
01/11:21am NNW 11 23 - - - - - - - 17.5 1010.6 0.0
01/11:00am N 5 8 - - - - - - - 15.9 1011.1 0.0
01/10:30am NNE 5 10 - - - - - - - 16.4 1011.7 0.0
01/10:00am N 5 13 - - - - - - - 16.5 1012.8 0.0
01/09:30am NNE 3 7 - - - - - - - 15.9 1013.2 0.0
01/09:00am NNW 4 9 - - - - - - - 15.5 1013.8 0.0
01/08:30am NNW 8 17 - - - - - - - 15.2 1014.4 0.0
01/08:00am NNW 6 12 - - - - - - - 14.1 1014.6 0.0
01/07:30am NW 5 9 - - - - - - - 13.5 1014.8 0.0
01/07:00am NW 3 6 - - - - - - - 13.3 1015.1 0.0
01/06:30am NW 8 14 - - - - - - - 13.9 1015.2 0.0
01/06:00am NNW 7 13 - - - - - - - 13.6 1015.3 0.0
01/05:30am NNW 5 12 - - - - - - - 13.2 1015.7 0.0
01/05:00am NNW 6 11 - - - - - - - 13.7 1016.2 0.0
01/04:30am NNW 8 12 - - - - - - - 14.1 1016.6 0.0
01/04:00am NNW 7 13 - - - - - - - 13.9 1017.0 0.0
01/03:30am NNW 5 8 - - - - - - - 13.2 1017.3 0.0
01/03:00am NNW 5 9 - - - - - - - 12.2 1017.7 0.0
01/02:30am WNW 4 5 - - - - - - - 9.7 1018.3 0.0
01/02:00am W 4 6 - - - - - - - 10.5 1018.7 0.0
01/01:30am WNW 7 8 - - - - - - - 10.4 1019.2 0.0
01/01:00am WNW 4 5 - - - - - - - 10.3 1019.4 0.0
01/12:30am WSW 4 5 - - - - - - - 10.9 1020.0 0.0
01/12:00am W 4 5 - - - - - - - 10.8 1020.2 0.0
 
Date/Time
EST
Wind Sea
Height
m
Swell Vis
km
Cloud Weather Temp
°C
Press
MSL
hPa
Rain since
9am
mm
Dir  Spd
kts
Gust
kts
Height
m
Period
s
Dir
31/11:30pm W 5 7 - - - - - - - 11.8 1020.4 0.0
31/11:00pm W 6 10 - - - - - - - 12.4 1020.8 0.0
31/10:30pm NW 8 12 - - - - - - - 12.9 1021.2 0.0
31/10:00pm WNW 3 5 - - - - - - - 11.0 1021.3 0.0
31/09:30pm WSW 3 6 - - - - - - - 10.8 1021.4 0.0
31/09:00pm SSE 2 3 - - - - - - - 11.0 1021.5 0.0
31/08:30pm S 3 5 - - - - - - - 11.5 1021.6 0.0
31/08:00pm SSE 4 4 - - - - - - - 11.2 1022.0 0.0
31/07:30pm S 4 6 - - - - - - - 11.7 1021.9 0.0
31/07:00pm S 3 5 - - - - - - - 11.8 1022.2 0.0
31/06:30pm S 2 3 - - - - - - - 11.9 1022.2 0.0
31/06:00pm SE 1 2 - - - - - - - 12.6 1022.3 0.0
31/05:30pm NE 1 3 - - - - - - - 13.2 1022.5 0.0
31/05:00pm NE 4 5 - - - - - - - 14.7 1022.5 0.0
31/04:30pm NNE 5 8 - - - - - - - 15.7 1022.6 0.0
31/04:00pm NNE 6 9 - - - - - - - 16.7 1022.8 0.0
31/03:30pm NE 7 12 - - - - - - - 17.0 1023.2 0.0
31/03:00pm NNE 7 12 - - - - - - - 17.9 1023.4 0.0
31/02:30pm NNE 8 13 - - - - - - - 17.5 1023.6 0.0
31/02:00pm NNE 9 14 - - - - - - - 17.8 1024.0 0.0
31/01:30pm NE 8 14 - - - - - - - 17.6 1024.4 0.0
31/01:00pm NNE 9 15 - - - - - - - 17.4 1024.7 0.0
31/12:30pm NE 8 12 - - - - - - - 17.7 1025.1 0.0
31/12:00pm NE 7 10 - - - - - - - 17.6 1025.6 0.0
31/11:30am NE 7 11 - - - - - - - 17.6 1025.8 0.0
31/11:00am NE 6 11 - - - - - - - 17.6 1026.1 0.0
31/10:30am NE 4 7 - - - - - - - 17.5 1026.4 0.0
31/10:00am ENE 5 7 - - - - - - - 15.9 1026.6 0.0
31/09:30am ENE 4 6 - - - - - - - 15.9 1026.5 0.0
31/09:00am ENE 2 4 - - - - - - - 14.3 1026.5 0.0
31/08:30am WNW 2 3 - - - - - - - 12.2 1026.5 0.0
31/08:00am NE 2 3 - - - - - - - 12.2 1026.4 0.0
31/07:30am CALM 0 1 - - - - - - - 10.0 1026.2 0.0
31/07:00am WNW 5 7 - - - - - - - 9.8 1025.9 0.0
31/06:30am WNW 5 7 - - - - - - - 8.6 1025.6 0.0
31/06:00am WNW 4 5 - - - - - - - 9.1 1025.4 0.0
31/05:30am WNW 6 7 - - - - - - - 8.9 1025.1 0.0
31/05:00am W 4 6 - - - - - - - 8.2 1025.1 0.0

Other formats

Comma delimited format used in spreadsheet applications
http://www.bom.gov.au/fwo/IDT60701/IDT60701.94987.axf

JavaScript Object Notation format (JSON) in row-major order
http://www.bom.gov.au/fwo/IDT60701/IDT60701.94987.json

Data quality

Most of these data are generated automatically and are frequently updated. Quality checks on data are not normally performed. It is possible for incorrect values to appear. Refer to information at About Latest Weather Observations and please check the disclaimer before using these data.